Time;durP1;ratioP1;P1;durP2;ratioP2;P2;SDS_P1;SDS_P2;PMS_P1;PMS_P2;Temp;Humidity;BMP_temperature;BMP_pressure;BME280_temperature;BME280_humidity;BME280_pressure;Samples;Min_cycle;Max_cycle;Signal;HPM_P1;HPM_P2
2023/08/11 00:03:26;;;;;;;4.72;2.20;;;;;;;15.91;100.00;100253.16;12207122;19;20007;-84
2023/08/11 00:07:28;;;;;;;5.45;2.78;;;;;;;15.93;100.00;100250.91;12184782;19;20046;-85
2023/08/11 00:11:30;;;;;;;7.68;2.80;;;;;;;15.94;100.00;100251.75;12208281;19;20014;-86
2023/08/11 00:15:32;;;;;;;6.18;2.55;;;;;;;15.92;100.00;100260.38;12208530;19;20030;-85
2023/08/11 00:19:33;;;;;;;4.97;2.73;;;;;;;15.95;100.00;100253.44;12186172;19;20019;-86
2023/08/11 00:23:39;;;;;;;6.38;2.60;;;;;;;15.99;100.00;100254.53;12208533;19;20003;-87
2023/08/11 00:27:41;;;;;;;8.32;3.03;;;;;;;16.00;100.00;100249.81;12220125;19;20006;-86
2023/08/11 00:31:45;;;;;;;7.03;2.78;;;;;;;16.00;100.00;100252.59;12197313;19;20489;-88
2023/08/11 00:35:47;;;;;;;7.25;2.70;;;;;;;16.03;100.00;100257.59;12208606;19;20006;-87
2023/08/11 00:39:51;;;;;;;7.35;2.83;;;;;;;16.02;100.00;100262.34;12203867;19;20129;-87
2023/08/11 00:43:53;;;;;;;10.13;2.90;;;;;;;16.00;100.00;100255.38;12180227;19;20662;-85
2023/08/11 00:47:56;;;;;;;10.50;3.20;;;;;;;15.98;100.00;100254.84;12206239;19;20011;-86
2023/08/11 00:51:58;;;;;;;9.18;4.22;;;;;;;15.95;100.00;100259.00;12210228;19;20046;-85
2023/08/11 00:56:02;;;;;;;9.27;2.83;;;;;;;15.93;100.00;100256.47;12198774;19;20010;-85
2023/08/11 01:00:13;;;;;;;9.88;4.35;;;;;;;15.92;100.00;100257.59;12214963;19;20019;-84
2023/08/11 01:04:15;;;;;;;7.43;3.30;;;;;;;15.90;100.00;100254.25;12192581;19;20029;-85
2023/08/11 01:08:25;;;;;;;9.70;3.13;;;;;;;15.89;100.00;100266.47;12215216;19;20010;-84
2023/08/11 01:12:30;;;;;;;5.22;2.72;;;;;;;15.84;100.00;100257.28;12212937;19;20011;-86
2023/08/11 01:16:33;;;;;;;5.28;3.28;;;;;;;15.79;100.00;100248.94;12192531;19;20472;-85
2023/08/11 01:20:36;;;;;;;5.25;3.00;;;;;;;15.74;100.00;100247.00;12211765;19;20010;-85
2023/08/11 01:24:38;;;;;;;6.40;3.23;;;;;;;15.68;100.00;100254.47;12215207;19;20028;-84
2023/08/11 01:28:40;;;;;;;;;;;;;;;15.62;100.00;100244.44;12191795;19;20250;-85
2023/08/11 01:32:42;;;;;;;8.15;3.40;;;;;;;15.58;100.00;100243.28;12216255;19;19911;-86
2023/08/11 01:36:46;;;;;;;7.90;2.95;;;;;;;15.56;100.00;100241.91;12222415;19;20007;-85
2023/08/11 01:41:03;;;;;;;6.65;3.45;;;;;;;15.54;100.00;100235.78;12194351;19;20010;-85
2023/08/11 01:45:07;;;;;;;7.85;3.42;;;;;;;15.52;100.00;100236.03;12214315;19;20019;-85
2023/08/11 01:49:12;;;;;;;7.32;3.22;;;;;;;15.53;100.00;100228.53;12192753;19;20014;-85
2023/08/11 01:53:14;;;;;;;10.32;3.65;;;;;;;15.51;100.00;100228.81;12217029;19;20046;-85
2023/08/11 01:57:17;;;;;;;9.35;3.38;;;;;;;15.49;100.00;100219.91;12226662;19;20083;-85
2023/08/11 02:01:19;;;;;;;10.93;4.07;;;;;;;15.45;100.00;100219.63;12191391;19;20043;-85
2023/08/11 02:05:24;;;;;;;5.82;3.63;;;;;;;15.43;100.00;100216.28;12215054;19;20047;-86
2023/08/11 02:09:27;;;;;;;7.45;3.20;;;;;;;15.40;100.00;100213.22;12209849;19;20529;-85
2023/08/11 02:13:29;;;;;;;11.15;3.42;;;;;;;15.35;100.00;100216.84;12191628;19;20026;-85
2023/08/11 02:17:37;;;;;;;10.43;3.70;;;;;;;15.34;100.00;100212.38;12212136;19;20512;-84
2023/08/11 02:21:39;;;;;;;7.97;3.60;;;;;;;15.33;100.00;100219.03;12211734;19;20006;-84
2023/08/11 02:25:41;;;;;;;5.85;3.30;;;;;;;15.27;100.00;100215.41;12188445;19;20114;-85
2023/08/11 02:29:45;;;;;;;5.45;3.30;;;;;;;15.20;100.00;100219.53;12212917;19;20497;-85
2023/08/11 02:33:47;;;;;;;6.57;3.00;;;;;;;15.14;100.00;100223.38;12215386;19;20006;-86
2023/08/11 02:37:49;;;;;;;7.57;3.63;;;;;;;15.09;100.00;100226.97;12191200;19;20007;-86
2023/08/11 02:41:51;;;;;;;6.53;3.03;;;;;;;14.98;100.00;100225.25;12210824;19;20003;-84
2023/08/11 02:45:53;;;;;;;7.30;3.53;;;;;;;14.83;100.00;100220.44;12211833;19;19998;-84
2023/08/11 02:49:55;;;;;;;8.43;4.03;;;;;;;14.76;100.00;100229.00;12178819;19;20006;-85
2023/08/11 02:53:57;;;;;;;6.10;3.08;;;;;;;14.74;100.00;100238.69;12210589;19;20023;-85
2023/08/11 02:57:59;;;;;;;5.15;2.95;;;;;;;14.72;100.00;100221.47;12211594;19;20761;-85
2023/08/11 03:02:01;;;;;;;5.65;3.13;;;;;;;14.70;100.00;100215.38;12189708;19;20006;-83
2023/08/11 03:06:04;;;;;;;7.93;3.17;;;;;;;14.71;100.00;100223.41;12209356;19;20017;-86
2023/08/11 03:10:09;;;;;;;4.22;2.95;;;;;;;14.71;100.00;100222.59;12185348;19;20011;-84
2023/08/11 03:14:12;;;;;;;5.00;3.17;;;;;;;14.70;100.00;100226.47;12213978;19;20019;-84
2023/08/11 03:18:15;;;;;;;6.80;3.60;;;;;;;14.70;100.00;100223.69;12208472;19;20011;-84
2023/08/11 03:22:17;;;;;;;5.28;3.25;;;;;;;14.66;100.00;100219.78;12186990;19;20303;-84
2023/08/11 03:26:19;;;;;;;;;;;;;;;14.64;100.00;100216.44;12209404;19;20561;-84
2023/08/11 03:30:21;;;;;;;7.97;3.10;;;;;;;14.65;100.00;100218.09;12208215;19;20718;-84
2023/08/11 03:34:28;;;;;;;7.53;3.35;;;;;;;14.62;100.00;100213.09;12190221;19;20089;-83
2023/08/11 03:38:29;;;;;;;6.93;2.73;;;;;;;14.56;100.00;100224.16;12208287;19;20090;-85
2023/08/11 03:42:32;;;;;;;5.57;2.83;;;;;;;14.47;100.00;100228.50;12210658;19;20037;-85
2023/08/11 03:46:34;;;;;;;5.78;3.25;;;;;;;14.35;100.00;100234.22;12188125;19;20049;-83
2023/08/11 03:50:36;;;;;;;5.63;3.10;;;;;;;14.28;100.00;100241.09;12207028;19;20018;-84
2023/08/11 03:54:39;;;;;;;5.30;3.35;;;;;;;14.22;100.00;100237.44;12212630;19;20417;-84
2023/08/11 03:58:50;;;;;;;10.40;3.90;;;;;;;14.20;100.00;100238.81;12186508;19;20014;-83
2023/08/11 04:02:53;;;;;;;8.13;3.42;;;;;;;14.17;100.00;100239.31;12208505;19;20007;-85
2023/08/11 04:06:55;;;;;;;7.85;3.15;;;;;;;14.11;100.00;100233.72;12212144;19;20458;-85
2023/08/11 04:10:57;;;;;;;6.72;2.92;;;;;;;14.10;100.00;100239.56;12186833;19;20014;-85
2023/08/11 04:14:59;;;;;;;8.07;3.60;;;;;;;14.08;100.00;100242.56;12210725;19;20006;-84
2023/08/11 04:19:01;;;;;;;6.50;3.33;;;;;;;14.04;100.00;100243.34;12210124;19;20030;-83
2023/08/11 04:23:03;;;;;;;6.87;3.33;;;;;;;13.98;100.00;100242.47;12208141;19;20014;-84
2023/08/11 04:27:06;;;;;;;8.55;3.20;;;;;;;13.95;100.00;100243.00;12209557;19;20018;-85
2023/08/11 04:31:09;;;;;;;6.70;3.60;;;;;;;13.95;100.00;100243.00;12190612;19;20007;-85
2023/08/11 04:35:13;;;;;;;10.63;3.75;;;;;;;13.98;100.00;100245.25;12212193;19;20029;-84
2023/08/11 04:39:16;;;;;;;8.45;3.72;;;;;;;14.01;100.00;100241.97;12208936;19;20013;-85
2023/08/11 04:43:19;;;;;;;8.00;3.33;;;;;;;14.06;100.00;100243.94;12201659;19;20050;-85
2023/08/11 04:47:21;;;;;;;4.80;3.05;;;;;;;14.09;100.00;100249.78;12200386;19;20007;-84
2023/08/11 04:51:23;;;;;;;8.30;2.83;;;;;;;14.13;100.00;100247.34;12200130;19;20019;-85
2023/08/11 04:55:25;;;;;;;6.88;4.00;;;;;;;14.18;100.00;100257.63;12185019;19;20476;-85
2023/08/11 04:59:27;;;;;;;5.95;3.38;;;;;;;14.23;100.00;100254.91;12197338;19;20011;-85
2023/08/11 05:03:29;;;;;;;6.13;3.10;;;;;;;14.28;100.00;100263.28;12200548;19;20340;-84
2023/08/11 05:07:31;;;;;;;5.60;3.63;;;;;;;14.31;100.00;100276.59;12176955;19;20043;-85
2023/08/11 05:11:33;;;;;;;6.03;3.50;;;;;;;14.36;100.00;100277.47;12199646;19;20007;-83
2023/08/11 05:15:35;;;;;;;8.85;3.47;;;;;;;14.43;100.00;100282.81;12207496;19;20093;-85
2023/08/11 05:19:37;;;;;;;6.85;3.63;;;;;;;14.50;100.00;100275.09;12176439;19;20015;-84
2023/08/11 05:23:39;;;;;;;6.43;3.50;;;;;;;14.57;100.00;100272.13;12194503;19;20919;-84
2023/08/11 05:27:41;;;;;;;6.40;3.27;;;;;;;14.64;100.00;100275.53;12195223;19;20268;-83
2023/08/11 05:31:43;;;;;;;5.70;3.20;;;;;;;14.70;100.00;100281.94;12177172;19;20220;-84
2023/08/11 05:35:44;;;;;;;5.07;3.25;;;;;;;14.75;100.00;100274.50;12199235;19;20003;-83
2023/08/11 05:39:46;;;;;;;8.43;3.90;;;;;;;14.82;100.00;100277.88;12211887;19;20794;-83
2023/08/11 05:43:48;;;;;;;7.65;3.78;;;;;;;14.90;100.00;100284.03;12197851;19;20023;-85
2023/08/11 05:47:50;;;;;;;6.32;3.38;;;;;;;14.97;100.00;100281.88;12216446;19;20048;-84
2023/08/11 05:51:51;;;;;;;6.40;3.08;;;;;;;15.03;100.00;100286.34;12215751;19;20415;-84
2023/08/11 05:55:53;;;;;;;8.30;4.00;;;;;;;15.10;100.00;100275.81;12193181;19;20027;-84
2023/08/11 05:59:55;;;;;;;11.32;4.03;;;;;;;15.17;100.00;100275.56;12209712;19;20019;-83
2023/08/11 06:03:57;;;;;;;6.13;3.47;;;;;;;15.25;100.00;100277.84;12210077;19;20016;-84
2023/08/11 06:07:59;;;;;;;5.35;3.20;;;;;;;15.35;100.00;100289.03;12186543;19;20382;-84
2023/08/11 06:12:07;;;;;;;6.05;3.38;;;;;;;15.44;100.00;100292.97;12209638;19;20033;-83
2023/08/11 06:16:09;;;;;;;9.00;3.90;;;;;;;15.58;100.00;100293.28;12185503;19;20053;-84
2023/08/11 06:20:13;;;;;;;7.13;3.88;;;;;;;15.72;100.00;100293.66;12207718;19;20007;-85
2023/08/11 06:24:26;;;;;;;6.28;3.55;;;;;;;15.89;100.00;100290.66;12205055;19;20508;-84
2023/08/11 06:28:29;;;;;;;6.00;3.93;;;;;;;16.05;100.00;100297.09;12186333;19;20038;-84
2023/08/11 06:32:30;;;;;;;7.60;4.65;;;;;;;16.19;100.00;100287.13;12200849;19;20260;-83
2023/08/11 06:36:33;;;;;;;7.67;4.03;;;;;;;16.35;100.00;100285.19;12213814;19;20335;-84
2023/08/11 06:40:34;;;;;;;11.52;5.38;;;;;;;16.47;100.00;100293.25;12165784;19;20936;-84
2023/08/11 06:44:36;;;;;;;16.33;6.30;;;;;;;16.64;100.00;100293.81;12206441;19;20010;-85
2023/08/11 06:48:38;;;;;;;9.57;5.05;;;;;;;16.81;100.00;100296.38;12207343;19;20010;-84
2023/08/11 06:52:40;;;;;;;7.50;4.20;;;;;;;16.98;100.00;100293.25;12188158;19;20010;-86
2023/08/11 06:56:42;;;;;;;6.95;3.97;;;;;;;17.16;100.00;100292.66;12216525;19;20023;-85
2023/08/11 07:00:43;;;;;;;7.93;4.60;;;;;;;17.40;100.00;100294.84;12214012;19;20014;-85
2023/08/11 07:04:46;;;;;;;7.67;4.97;;;;;;;17.60;100.00;100299.50;12190689;19;20018;-85
2023/08/11 07:08:48;;;;;;;8.45;4.57;;;;;;;17.80;100.00;100305.03;12207068;19;20402;-85
2023/08/11 07:12:50;;;;;;;7.53;4.05;;;;;;;18.04;100.00;100302.38;12209018;19;20016;-84
2023/08/11 07:16:51;;;;;;;6.93;4.10;;;;;;;18.27;100.00;100308.41;12193151;19;20015;-84
2023/08/11 07:20:53;;;;;;;7.00;4.87;;;;;;;18.51;100.00;100311.31;12210026;19;20072;-85
2023/08/11 07:24:58;;;;;;;8.95;4.25;;;;;;;18.70;100.00;100312.25;12210820;19;20023;-85
2023/08/11 07:29:00;;;;;;;11.05;4.45;;;;;;;18.89;100.00;100316.03;12183103;19;20746;-84
2023/08/11 07:33:03;;;;;;;6.10;3.47;;;;;;;19.21;100.00;100322.16;12214537;19;20021;-84
2023/08/11 07:37:05;;;;;;;5.45;3.88;;;;;;;19.45;100.00;100320.19;12196065;19;20030;-85
2023/08/11 07:41:07;;;;;;;5.70;3.65;;;;;;;19.63;100.00;100326.16;12212806;19;20002;-84
2023/08/11 07:45:09;;;;;;;6.30;3.45;;;;;;;19.87;100.00;100332.63;12204610;19;20077;-84
2023/08/11 07:49:12;;;;;;;9.23;3.83;;;;;;;20.13;100.00;100332.25;12185393;19;19998;-84
2023/08/11 07:53:14;;;;;;;8.57;4.18;;;;;;;20.42;100.00;100327.34;12206643;19;20828;-85
2023/08/11 07:57:16;;;;;;;5.93;3.67;;;;;;;20.64;100.00;100331.53;12211154;19;20080;-82
2023/08/11 08:01:19;;;;;;;7.15;3.92;;;;;;;20.91;100.00;100331.66;12186850;19;20034;-85
2023/08/11 08:05:21;;;;;;;6.57;3.57;;;;;;;21.15;99.48;100327.88;12211085;19;20060;-84
2023/08/11 08:09:23;;;;;;;8.73;3.70;;;;;;;21.37;97.97;100332.81;12208201;19;20041;-84
2023/08/11 08:13:25;;;;;;;7.27;4.10;;;;;;;21.61;96.50;100327.84;12184854;19;20103;-84
2023/08/11 08:17:27;;;;;;;5.47;3.20;;;;;;;21.90;93.88;100334.28;12204130;19;20014;-85
2023/08/11 08:21:29;;;;;;;6.00;3.60;;;;;;;22.13;90.26;100329.56;12203502;19;20022;-85
2023/08/11 08:25:31;;;;;;;5.53;3.80;;;;;;;22.37;88.04;100320.91;12185516;19;20023;-85
2023/08/11 08:29:34;;;;;;;6.65;3.22;;;;;;;22.68;87.28;100321.84;12202822;19;20006;-84
2023/08/11 08:33:35;;;;;;;7.00;3.25;;;;;;;22.95;84.40;100325.72;12209680;19;20035;-84
2023/08/11 08:37:37;;;;;;;5.20;3.40;;;;;;;23.11;82.73;100326.97;12183442;19;20011;-85
2023/08/11 08:41:44;;;;;;;4.80;3.13;;;;;;;23.25;79.64;100320.44;12205541;19;20023;-84
2023/08/11 08:45:51;;;;;;;8.25;3.55;;;;;;;23.32;75.87;100317.97;12204102;19;20007;-84
2023/08/11 08:49:54;;;;;;;6.57;3.40;;;;;;;23.53;74.62;100324.72;12182271;19;20007;-84
2023/08/11 08:53:56;;;;;;;6.35;3.40;;;;;;;23.85;72.49;100320.69;12211758;19;20335;-85
2023/08/11 08:58:00;;;;;;;5.83;2.90;;;;;;;23.99;72.18;100325.38;12209152;19;20387;-84
2023/08/11 09:02:02;;;;;;;7.10;3.72;;;;;;;24.13;71.75;100314.81;12185017;19;20641;-84
2023/08/11 09:06:07;;;;;;;5.65;3.35;;;;;;;24.45;69.72;100321.16;12204347;19;20002;-84
2023/08/11 09:10:09;;;;;;;8.27;4.38;;;;;;;24.87;68.37;100315.88;12179789;19;20481;-85
2023/08/11 09:14:11;;;;;;;5.03;3.47;;;;;;;25.13;66.36;100310.16;12212914;19;20086;-84
2023/08/11 09:18:19;;;;;;;6.38;3.08;;;;;;;25.37;65.01;100309.63;12218493;19;20010;-84
2023/08/11 09:22:24;;;;;;;5.10;2.95;;;;;;;25.67;64.13;100310.47;12192023;19;20046;-84
2023/08/11 09:26:27;;;;;;;7.38;3.55;;;;;;;25.73;63.58;100309.16;12215285;19;20011;-84
2023/08/11 09:30:29;;;;;;;;;;;;;;;25.84;61.59;100304.78;12214185;19;20066;-84
2023/08/11 09:34:31;;;;;;;8.23;3.58;;;;;;;25.98;59.92;100293.25;12193361;19;19922;-84
2023/08/11 09:38:33;;;;;;;11.07;3.22;;;;;;;25.97;60.05;100296.41;12213265;19;20014;-85
2023/08/11 09:42:35;;;;;;;8.75;3.40;;;;;;;26.13;60.45;100300.31;12212142;19;20573;-85
2023/08/11 09:46:38;;;;;;;5.88;2.92;;;;;;;26.33;58.29;100296.66;12188719;19;20070;-84
2023/08/11 09:50:41;;;;;;;5.82;2.80;;;;;;;26.55;58.39;100294.69;12207737;19;20010;-84
2023/08/11 09:54:45;;;;;;;6.45;3.00;;;;;;;26.85;57.07;100286.09;12216617;19;20121;-86
2023/08/11 09:58:49;;;;;;;5.95;2.90;;;;;;;27.13;56.78;100287.13;12189252;19;20024;-83
2023/08/11 10:03:06;;;;;;;5.07;2.63;;;;;;;27.31;55.65;100290.63;12210478;19;20014;-84
2023/08/11 10:07:12;;;;;;;6.00;2.60;;;;;;;27.56;54.96;100293.47;12193947;19;20018;-83
2023/08/11 10:11:16;;;;;;;5.03;3.28;;;;;;;27.80;55.05;100281.34;12210700;19;20078;-84
2023/08/11 10:15:21;;;;;;;7.15;3.30;;;;;;;27.92;54.37;100285.00;12215749;19;20019;-84
2023/08/11 10:19:24;;;;;;;7.45;3.17;;;;;;;27.87;53.32;100281.56;12191353;19;20035;-84
2023/08/11 10:23:27;;;;;;;7.90;3.92;;;;;;;28.00;53.28;100277.56;12212176;19;20070;-86
2023/08/11 10:27:29;;;;;;;8.57;3.08;;;;;;;28.32;51.97;100283.41;12210936;19;20034;-84
2023/08/11 10:31:32;;;;;;;6.10;2.83;;;;;;;28.46;49.11;100278.16;12189589;19;20031;-85
2023/08/11 10:35:46;;;;;;;5.50;3.05;;;;;;;28.48;48.96;100286.34;12216212;19;20090;-84
2023/08/11 10:40:02;;;;;;;6.65;3.20;;;;;;;28.55;48.25;100290.19;12208213;19;20037;-86
2023/08/11 10:44:04;;;;;;;6.82;3.22;;;;;;;28.65;49.28;100282.38;12190175;19;20014;-84
2023/08/11 10:48:08;;;;;;;7.40;3.50;;;;;;;28.84;49.33;100276.84;12225635;19;20006;-85
2023/08/11 10:52:11;;;;;;;7.03;3.28;;;;;;;28.97;48.77;100280.44;12199770;19;20026;-84
2023/08/11 10:56:13;;;;;;;6.45;3.63;;;;;;;28.99;48.48;100273.22;12219293;19;20014;-84
2023/08/11 11:00:15;;;;;;;6.07;3.00;;;;;;;28.92;47.76;100264.50;12215603;19;20579;-84
2023/08/11 11:04:19;;;;;;;5.90;3.53;;;;;;;28.89;47.54;100268.09;12192649;19;20038;-84
2023/08/11 11:08:21;;;;;;;4.85;3.03;;;;;;;29.21;48.15;100265.31;12216106;19;20011;-84
2023/08/11 11:12:23;;;;;;;4.95;3.20;;;;;;;29.38;48.53;100250.75;12217795;19;20118;-83
2023/08/11 11:16:26;;;;;;;6.82;3.10;;;;;;;29.60;47.12;100251.28;12193066;19;20010;-84
2023/08/11 11:20:29;;;;;;;7.35;3.03;;;;;;;29.92;45.70;100255.75;12204671;19;20019;-84
2023/08/11 11:24:31;;;;;;;5.00;2.90;;;;;;;30.12;46.03;100247.28;12209703;19;21254;-84
2023/08/11 11:28:33;;;;;;;10.30;2.97;;;;;;;30.38;46.23;100238.97;12182600;19;20047;-86
2023/08/11 11:32:35;;;;;;;7.80;3.13;;;;;;;30.47;46.22;100226.53;12203459;19;20127;-87
2023/08/11 11:36:38;;;;;;;6.53;3.20;;;;;;;30.77;43.98;100226.72;12203357;19;20082;-84
2023/08/11 11:40:40;;;;;;;6.63;3.47;;;;;;;30.90;42.99;100227.41;12180118;19;20007;-84
2023/08/11 11:44:42;;;;;;;;;;;;;;;31.09;42.67;100222.50;12205259;19;20098;-85
2023/08/11 11:48:46;;;;;;;5.63;2.90;;;;;;;31.50;43.35;100210.59;12204751;19;19935;-85
2023/08/11 11:52:48;;;;;;;8.05;3.15;;;;;;;32.02;40.07;100216.72;12186888;19;20038;-85
2023/08/11 11:56:50;;;;;;;;;;;;;;;32.51;39.89;100222.25;12213912;19;20007;-85
2023/08/11 12:01:13;;;;;;;5.30;2.90;;;;;;;33.00;37.19;100206.94;12186012;19;19911;-83
2023/08/11 12:05:15;;;;;;;3.42;2.60;;;;;;;33.16;37.24;100200.13;12206247;19;20010;-82
2023/08/11 12:09:19;;;;;;;5.05;3.20;;;;;;;33.92;37.26;100203.19;12200435;19;20037;-83
2023/08/11 12:13:21;;;;;;;7.57;3.50;;;;;;;34.59;35.26;100203.94;12181540;19;20129;-83
2023/08/11 12:17:23;;;;;;;4.63;3.28;;;;;;;35.07;35.05;100206.53;12210901;19;20014;-82
2023/08/11 12:21:26;;;;;;;5.63;2.63;;;;;;;35.58;34.48;100200.44;12201959;19;20012;-83
2023/08/11 12:25:28;;;;;;;5.40;3.15;;;;;;;36.05;33.19;100203.22;12179220;19;20023;-84
2023/08/11 12:29:29;;;;;;;4.18;2.63;;;;;;;36.49;32.46;100201.81;12203240;19;20003;-83
2023/08/11 12:33:32;;;;;;;5.03;3.00;;;;;;;36.86;31.91;100200.44;12205961;19;20399;-86
2023/08/11 12:37:35;;;;;;;5.10;2.70;;;;;;;37.34;31.17;100205.44;12184803;19;20722;-83
2023/08/11 12:41:38;;;;;;;5.75;2.53;;;;;;;37.75;30.10;100191.09;12203272;19;20006;-84
2023/08/11 12:45:42;;;;;;;3.03;2.10;;;;;;;37.32;29.59;100199.28;12204953;19;20026;-83
2023/08/11 12:49:43;;;;;;;4.13;2.33;;;;;;;37.61;28.98;100189.19;12193609;19;20382;-82
2023/08/11 12:53:46;;;;;;;5.85;2.10;;;;;;;38.17;27.97;100185.31;12217546;19;20082;-84
2023/08/11 12:57:47;;;;;;;2.80;2.30;;;;;;;38.71;27.56;100188.31;12221805;19;20010;-84
2023/08/11 13:01:49;;;;;;;2.78;2.20;;;;;;;39.10;27.33;100196.38;12198520;19;20022;-83
2023/08/11 13:05:51;;;;;;;2.90;2.42;;;;;;;39.16;27.28;100190.94;12219573;19;20023;-82
2023/08/11 13:09:53;;;;;;;3.22;2.22;;;;;;;39.52;26.45;100182.53;12217784;19;20509;-81
2023/08/11 13:13:55;;;;;;;3.38;2.30;;;;;;;39.77;25.69;100172.59;12197253;19;20070;-82
2023/08/11 13:17:57;;;;;;;3.20;2.35;;;;;;;40.15;25.94;100175.97;12220546;19;20051;-82
2023/08/11 13:22:04;;;;;;;4.25;2.80;;;;;;;40.13;25.34;100166.13;12223323;19;20038;-83
2023/08/11 13:26:06;;;;;;;2.53;2.20;;;;;;;40.42;25.47;100160.56;12198824;19;20020;-83
2023/08/11 13:30:08;;;;;;;4.50;2.65;;;;;;;40.67;24.92;100166.63;12218774;19;20789;-82
2023/08/11 13:34:10;;;;;;;2.83;2.42;;;;;;;40.97;24.51;100156.03;12195814;19;20055;-81
2023/08/11 13:38:12;;;;;;;2.92;2.22;;;;;;;41.25;24.21;100159.47;12234298;19;20014;-82
2023/08/11 13:42:14;;;;;;;4.35;2.40;;;;;;;41.50;23.61;100162.56;12229966;19;20021;-84
2023/08/11 13:46:16;;;;;;;2.70;2.22;;;;;;;41.88;23.35;100156.13;12216374;19;20011;-83
2023/08/11 13:50:18;;;;;;;3.33;2.28;;;;;;;42.21;22.52;100141.53;12214366;19;20015;-81
2023/08/11 13:54:20;;;;;;;3.85;2.38;;;;;;;42.19;22.85;100136.22;12217333;19;20010;-82
2023/08/11 13:58:21;;;;;;;6.03;2.40;;;;;;;41.97;23.25;100141.81;12197581;19;20023;-83
2023/08/11 14:02:25;;;;;;;2.35;2.15;;;;;;;41.65;23.40;100137.75;12216584;19;20028;-83
2023/08/11 14:06:27;;;;;;;4.22;2.20;;;;;;;41.78;22.65;100131.22;12213758;19;20006;-82
2023/08/11 14:10:29;;;;;;;3.90;2.30;;;;;;;41.31;23.48;100123.78;12183827;19;20031;-82
2023/08/11 14:14:30;;;;;;;3.65;2.10;;;;;;;40.81;23.78;100113.47;12209600;19;20010;-82
2023/08/11 14:18:32;;;;;;;3.05;2.38;;;;;;;39.92;24.53;100121.22;12243489;19;20534;-83
2023/08/11 14:22:34;;;;;;;2.33;2.10;;;;;;;39.67;24.45;100105.19;12245336;19;20364;-82
2023/08/11 14:26:36;;;;;;;2.72;2.15;;;;;;;38.89;24.70;100099.59;12182325;19;20010;-83
2023/08/11 14:30:38;;;;;;;3.22;2.25;;;;;;;37.54;26.58;100108.78;12193693;19;20038;-84
2023/08/11 14:34:40;;;;;;;3.35;2.47;;;;;;;36.42;28.38;100113.72;12210692;19;20334;-82
2023/08/11 14:38:42;;;;;;;3.60;2.58;;;;;;;35.64;29.12;100109.13;12181708;19;20078;-83
2023/08/11 14:42:43;;;;;;;3.10;2.30;;;;;;;35.05;29.26;100100.19;12208286;19;20028;-83
2023/08/11 14:46:45;;;;;;;2.95;2.13;;;;;;;34.45;29.59;100099.66;12202828;19;20027;-82
2023/08/11 14:50:47;;;;;;;3.47;2.00;;;;;;;34.20;30.28;100093.06;12177353;19;20010;-83
2023/08/11 14:54:49;;;;;;;3.00;2.35;;;;;;;34.20;30.47;100091.00;12211933;19;20063;-85
2023/08/11 14:58:51;;;;;;;3.60;2.78;;;;;;;34.04;30.99;100087.69;12209914;19;20014;-83
2023/08/11 15:02:52;;;;;;;3.67;2.55;;;;;;;33.63;31.20;100081.38;12189109;19;20371;-83
2023/08/11 15:06:54;;;;;;;3.15;2.30;;;;;;;33.20;31.46;100086.75;12212164;19;20010;-83
2023/08/11 15:10:56;;;;;;;3.85;2.28;;;;;;;32.73;32.38;100088.41;12205569;19;20014;-84
2023/08/11 15:14:58;;;;;;;3.13;2.25;;;;;;;32.28;33.04;100084.69;12185821;19;20019;-85
2023/08/11 15:18:59;;;;;;;3.55;2.25;;;;;;;32.03;34.11;100090.91;12208936;19;20379;-82
2023/08/11 15:23:01;;;;;;;4.32;2.30;;;;;;;31.93;33.83;100091.59;12208802;19;20014;-83
2023/08/11 15:27:03;;;;;;;3.33;2.25;;;;;;;31.65;35.20;100086.31;12189460;19;20031;-82
2023/08/11 15:31:05;;;;;;;5.32;2.50;;;;;;;31.50;35.62;100085.28;12206813;19;20020;-81
2023/08/11 15:35:17;;;;;;;3.83;2.50;;;;;;;31.43;36.42;100090.88;12272550;19;20405;-84
2023/08/11 15:39:19;;;;;;;4.50;2.60;;;;;;;31.50;35.95;100086.13;12245085;19;19998;-84
2023/08/11 15:43:21;;;;;;;5.85;2.72;;;;;;;31.74;35.85;100075.47;12264101;19;20006;-84
2023/08/11 15:47:23;;;;;;;4.38;2.42;;;;;;;33.03;34.18;100077.69;12242812;19;20006;-84
2023/08/11 15:51:25;;;;;;;4.28;2.58;;;;;;;33.74;33.44;100071.63;12262960;19;20573;-84
2023/08/11 15:55:27;;;;;;;3.55;2.70;;;;;;;33.57;33.67;100064.59;12266968;19;20090;-85
2023/08/11 15:59:37;;;;;;;3.50;2.47;;;;;;;33.57;33.47;100055.22;12243788;19;20035;-84
2023/08/11 16:03:39;;;;;;;4.10;2.55;;;;;;;33.28;33.84;100055.00;12266955;19;20126;-84
2023/08/11 16:07:41;;;;;;;4.47;3.17;;;;;;;32.66;35.04;100058.59;12265535;19;20031;-84
2023/08/11 16:11:44;;;;;;;;;;;;;;;32.10;35.34;100059.63;12243406;19;20083;-83
2023/08/11 16:15:46;;;;;;;3.80;2.70;;;;;;;31.76;35.72;100062.44;12274259;19;19914;-83
2023/08/11 16:19:47;;;;;;;;;;;;;;;31.34;36.38;100056.97;12264253;19;20006;-84
2023/08/11 16:23:49;;;;;;;5.55;2.50;;;;;;;31.06;37.20;100054.53;12243600;19;19910;-83
2023/08/11 16:27:51;;;;;;;4.68;2.63;;;;;;;30.93;37.67;100055.94;12261999;19;20058;-85
2023/08/11 16:31:53;;;;;;;5.25;2.67;;;;;;;30.81;38.13;100052.09;12265197;19;20014;-85
2023/08/11 16:35:55;;;;;;;3.55;2.70;;;;;;;30.71;38.67;100052.72;12244891;19;20010;-84
2023/08/11 16:39:56;;;;;;;;;;;;;;;30.61;38.34;100037.09;12265693;19;20079;-86
2023/08/11 16:43:58;;;;;;;3.90;2.42;;;;;;;30.37;39.19;100040.31;12247147;19;19928;-83
2023/08/11 16:48:03;;;;;;;4.68;2.85;;;;;;;30.07;40.61;100040.94;12195357;19;20007;-83
2023/08/11 16:52:05;;;;;;;4.30;3.00;;;;;;;29.76;41.90;100039.13;12213992;19;20355;-84
2023/08/11 16:56:07;;;;;;;;;;;;;;;29.50;42.41;100037.72;12215576;19;20006;-82
2023/08/11 17:00:10;;;;;;;5.10;2.50;;;;;;;29.38;44.44;100029.34;12193274;19;19915;-83
2023/08/11 17:04:12;;;;;;;3.80;2.47;;;;;;;29.24;45.08;100029.03;12223104;19;20483;-85
2023/08/11 17:08:14;;;;;;;4.45;2.90;;;;;;;29.48;45.38;100025.13;12221532;19;20043;-83
2023/08/11 17:12:16;;;;;;;4.40;2.60;;;;;;;29.60;46.15;100015.59;12192831;19;20087;-86
2023/08/11 17:16:18;;;;;;;5.30;3.42;;;;;;;29.50;46.50;100019.88;12220083;19;20462;-83
2023/08/11 17:20:21;;;;;;;4.82;2.78;;;;;;;29.38;46.66;100031.38;12193715;19;20036;-85
2023/08/11 17:24:23;;;;;;;;;;;;;;;29.25;46.57;100019.34;12215802;19;20754;-85
2023/08/11 17:28:25;;;;;;;4.13;3.20;;;;;;;29.20;47.46;100013.94;12216641;19;19911;-84
2023/08/11 17:32:27;;;;;;;5.43;2.95;;;;;;;29.06;50.01;100020.94;12198574;19;20014;-84
2023/08/11 17:36:29;;;;;;;;;;;;;;;28.92;49.51;100019.75;12222187;19;20007;-84
2023/08/11 17:40:31;;;;;;;4.30;2.60;;;;;;;28.83;51.56;100022.78;12213283;19;20267;-86
2023/08/11 17:44:33;;;;;;;7.13;2.70;;;;;;;28.69;52.27;100022.44;12191384;19;20028;-83
2023/08/11 17:48:35;;;;;;;6.50;3.50;;;;;;;28.55;54.91;100018.03;12213895;19;20013;-84
2023/08/11 17:52:37;;;;;;;5.38;3.10;;;;;;;28.31;56.46;100024.69;12216476;19;20006;-84
2023/08/11 17:56:39;;;;;;;7.13;3.22;;;;;;;28.09;58.04;100019.63;12199889;19;20863;-84
2023/08/11 18:00:42;;;;;;;4.40;2.83;;;;;;;27.98;60.13;100025.00;12247299;19;20042;-86
2023/08/11 18:04:44;;;;;;;6.13;2.88;;;;;;;27.77;60.97;100025.19;12249636;19;20011;-85
2023/08/11 18:08:45;;;;;;;;;;;;;;;27.59;60.64;100027.50;12226207;19;20548;-84
2023/08/11 18:12:47;;;;;;;6.32;3.28;;;;;;;27.35;63.59;100021.94;12249955;19;19915;-83
2023/08/11 18:16:49;;;;;;;7.43;2.97;;;;;;;27.02;66.70;100020.91;12247808;19;20011;-86
2023/08/11 18:20:51;;;;;;;9.57;2.80;;;;;;;26.77;68.52;100017.28;12224842;19;20045;-85
2023/08/11 18:24:52;;;;;;;9.52;3.25;;;;;;;26.53;70.30;100017.25;12247324;19;20254;-84
2023/08/11 18:28:54;;;;;;;8.45;3.50;;;;;;;26.23;72.28;100016.59;12248376;19;20013;-83
2023/08/11 18:32:57;;;;;;;7.72;3.58;;;;;;;25.93;74.79;100008.28;12214776;19;20006;-84
2023/08/11 18:36:59;;;;;;;6.22;2.88;;;;;;;25.65;76.54;100020.16;12232402;19;20019;-84